Time;durP1;ratioP1;P1;durP2;ratioP2;P2;SDS_P1;SDS_P2;PMS_P1;PMS_P2;Temp;Humidity;BMP_temperature;BMP_pressure;BME280_temperature;BME280_humidity;BME280_pressure;Samples;Min_cycle;Max_cycle;Signal;HPM_P1;HPM_P2
2021/05/25 00:00:49;;;;;;;48.33;27.97;;;16.50;95.10;;;;;;5103505;28;20300;-72
2021/05/25 00:03:16;;;;;;;46.43;27.47;;;16.50;95.10;;;;;;5101991;28;20659;-72
2021/05/25 00:05:43;;;;;;;43.80;26.93;;;16.50;95.10;;;;;;5085988;28;20255;-72
2021/05/25 00:08:11;;;;;;;47.10;28.13;;;16.40;95.00;;;;;;5087420;28;20208;-72
2021/05/25 00:10:38;;;;;;;45.57;27.03;;;16.40;95.00;;;;;;5102389;28;20598;-72
2021/05/25 00:13:05;;;;;;;42.17;26.07;;;16.40;95.00;;;;;;5103382;28;20221;-72
2021/05/25 00:15:34;;;;;;;62.87;29.70;;;16.30;95.00;;;;;;5083531;28;20212;-71
2021/05/25 00:18:03;;;;;;;49.13;28.03;;;16.30;95.10;;;;;;5084216;28;20228;-72
2021/05/25 00:20:31;;;;;;;75.63;28.73;;;16.20;95.10;;;;;;5086726;28;20292;-72
2021/05/25 00:22:58;;;;;;;56.70;28.60;;;16.10;95.20;;;;;;5083861;28;20223;-72
2021/05/25 00:25:25;;;;;;;73.10;29.50;;;16.00;95.20;;;;;;5098222;28;20689;-72
2021/05/25 00:27:54;;;;;;;57.47;28.10;;;16.00;95.20;;;;;;5104750;28;20259;-72
2021/05/25 00:30:22;;;;;;;38.93;25.43;;;15.90;95.30;;;;;;5101374;28;20289;-72
2021/05/25 00:32:50;;;;;;;47.03;25.63;;;15.90;95.30;;;;;;5101367;28;20350;-72
2021/05/25 00:35:17;;;;;;;46.80;25.83;;;15.80;95.30;;;;;;5097480;28;20216;-72
2021/05/25 00:37:44;;;;;;;42.90;24.03;;;15.80;95.20;;;;;;5097010;28;20240;-71
2021/05/25 00:40:14;;;;;;;68.87;27.17;;;15.70;95.20;;;;;;5095148;28;20236;-71
2021/05/25 00:42:46;;;;;;;50.47;24.57;;;15.70;95.10;;;;;;5098164;28;20255;-71
2021/05/25 00:45:15;;;;;;;49.93;25.77;;;15.60;95.10;;;;;;5103344;28;20216;-71
2021/05/25 00:47:43;;;;;;;47.77;24.20;;;15.50;95.20;;;;;;5102519;28;20696;-71
2021/05/25 00:50:15;;;;;;;37.90;21.27;;;15.40;95.10;;;;;;5085364;28;20228;-71
2021/05/25 00:52:44;;;;;;;45.77;23.80;;;15.40;95.20;;;;;;5101836;28;20634;-71
2021/05/25 00:55:16;;;;;;;50.47;24.30;;;15.30;95.20;;;;;;5102275;28;20513;-71
2021/05/25 00:57:44;;;;;;;80.40;26.77;;;15.30;95.30;;;;;;5104905;28;20349;-71
2021/05/25 01:00:13;;;;;;;85.23;24.03;;;15.20;95.20;;;;;;5100980;28;20237;-71
2021/05/25 01:02:41;;;;;;;58.27;23.97;;;15.20;95.10;;;;;;5104497;28;20215;-71
2021/05/25 01:05:11;;;;;;;47.67;23.00;;;15.10;95.10;;;;;;5097062;28;20209;-71
2021/05/25 01:07:39;;;;;;;52.70;23.63;;;15.10;95.20;;;;;;5097323;28;20209;-71
2021/05/25 01:10:08;;;;;;;42.57;23.40;;;15.00;95.20;;;;;;5104026;28;20216;-72
2021/05/25 01:12:45;;;;;;;52.80;25.27;;;15.00;95.30;;;;;;5101646;28;20702;-72
2021/05/25 01:15:13;;;;;;;45.23;25.43;;;14.90;95.30;;;;;;5102811;28;20291;-72
2021/05/25 01:17:40;;;;;;;56.37;27.03;;;15.00;95.40;;;;;;5101075;28;20209;-72
2021/05/25 01:20:08;;;;;;;49.03;23.57;;;14.90;95.40;;;;;;5102412;28;20297;-72
2021/05/25 01:22:35;;;;;;;49.60;24.97;;;14.90;95.30;;;;;;5080096;28;20274;-72
2021/05/25 01:25:12;;;;;;;49.77;24.67;;;14.90;95.20;;;;;;5101886;28;20273;-72
2021/05/25 01:27:41;;;;;;;70.07;24.20;;;14.80;95.20;;;;;;5096039;28;20216;-72
2021/05/25 01:30:10;;;;;;;52.90;24.43;;;14.80;95.20;;;;;;5100126;28;20212;-72
2021/05/25 01:32:37;;;;;;;69.20;26.93;;;14.70;95.10;;;;;;5083169;28;20239;-71
2021/05/25 01:35:05;;;;;;;49.73;25.70;;;14.70;95.00;;;;;;5103577;28;20223;-71
2021/05/25 01:37:34;;;;;;;46.70;24.27;;;14.60;95.00;;;;;;5101171;28;20253;-71
2021/05/25 01:40:01;;;;;;;45.93;26.23;;;14.50;95.10;;;;;;5085561;28;20749;-71
2021/05/25 01:42:36;;;;;;;46.40;27.27;;;14.60;95.20;;;;;;5100639;28;20243;-71
2021/05/25 01:45:06;;;;;;;48.83;26.60;;;14.50;95.20;;;;;;5083980;28;20624;-72
2021/05/25 01:47:33;;;;;;;49.80;23.93;;;14.50;95.30;;;;;;5086336;28;20233;-72
2021/05/25 01:50:14;;;;;;;57.73;24.70;;;14.50;95.30;;;;;;5106590;28;20286;-72
2021/05/25 01:53:09;;;;;;;42.03;23.10;;;14.50;95.20;;;;;;5099236;28;20295;-72
2021/05/25 01:55:41;;;;;;;56.47;25.33;;;14.50;95.20;;;;;;5091082;28;20232;-72
2021/05/25 01:58:13;;;;;;;57.27;24.53;;;14.50;95.20;;;;;;5107047;28;20273;-72
2021/05/25 02:00:50;;;;;;;61.50;26.60;;;14.50;95.10;;;;;;5105414;28;20235;-72
2021/05/25 02:03:18;;;;;;;44.73;25.23;;;14.40;95.10;;;;;;5105414;28;20200;-72
2021/05/25 02:05:48;;;;;;;45.50;23.00;;;14.30;95.10;;;;;;5105560;28;20307;-72
2021/05/25 02:08:17;;;;;;;43.10;23.97;;;14.30;95.10;;;;;;5090922;28;20219;-72
2021/05/25 02:10:50;;;;;;;52.37;23.30;;;14.30;95.20;;;;;;5087751;28;20573;-72
2021/05/25 02:13:24;;;;;;;45.73;24.83;;;14.30;95.20;;;;;;5085594;28;20224;-72
2021/05/25 02:15:55;;;;;;;87.57;26.80;;;14.30;95.30;;;;;;5111753;28;20215;-71
2021/05/25 02:18:26;;;;;;;218.53;28.00;;;14.30;95.30;;;;;;5109173;28;20235;-71
2021/05/25 02:20:56;;;;;;;44.10;22.13;;;14.30;95.20;;;;;;5111534;28;20292;-71
2021/05/25 02:23:24;;;;;;;39.90;20.97;;;14.20;95.10;;;;;;5109367;28;20238;-72
2021/05/25 02:25:51;;;;;;;44.57;21.37;;;14.20;95.10;;;;;;5109109;28;20629;-71
2021/05/25 02:28:19;;;;;;;56.30;23.07;;;14.20;95.10;;;;;;5112093;28;20247;-71
2021/05/25 02:30:46;;;;;;;40.10;22.70;;;14.20;95.10;;;;;;5108319;28;20216;-71
2021/05/25 02:33:16;;;;;;;50.13;23.87;;;14.10;95.10;;;;;;5094769;28;20216;-71
2021/05/25 02:35:45;;;;;;;36.90;22.63;;;14.10;95.10;;;;;;5104777;28;20255;-71
2021/05/25 02:38:14;;;;;;;53.50;25.13;;;14.00;95.00;;;;;;5094780;28;20248;-71
2021/05/25 02:40:47;;;;;;;60.20;24.30;;;14.00;95.10;;;;;;5091208;28;20259;-71
2021/05/25 02:43:16;;;;;;;79.20;25.40;;;14.00;95.10;;;;;;5110903;28;20237;-71
2021/05/25 02:45:44;;;;;;;59.27;24.87;;;14.00;95.10;;;;;;5109756;28;20250;-71
2021/05/25 02:48:11;;;;;;;98.50;27.87;;;13.90;95.10;;;;;;5104919;28;20200;-72
2021/05/25 02:50:39;;;;;;;59.87;23.93;;;13.90;95.10;;;;;;5104847;28;20303;-72
2021/05/25 02:53:07;;;;;;;52.90;23.37;;;13.90;95.10;;;;;;5101171;28;20213;-71
2021/05/25 02:55:36;;;;;;;37.90;20.17;;;13.90;95.10;;;;;;5084342;28;20228;-71
2021/05/25 02:58:05;;;;;;;39.30;21.53;;;13.90;95.10;;;;;;5085682;28;20212;-71
2021/05/25 03:00:39;;;;;;;39.50;20.43;;;13.90;95.20;;;;;;5105627;28;20704;-72
2021/05/25 03:03:08;;;;;;;40.90;22.03;;;13.90;95.20;;;;;;5099042;28;20304;-72
2021/05/25 03:05:35;;;;;;;41.00;22.07;;;13.90;95.20;;;;;;5099577;28;20671;-71
2021/05/25 03:08:04;;;;;;;38.63;21.73;;;13.90;95.20;;;;;;5101937;28;20719;-71
2021/05/25 03:10:34;;;;;;;49.73;23.03;;;13.90;95.20;;;;;;5105418;28;20245;-71
2021/05/25 03:13:03;;;;;;;39.83;22.80;;;13.90;95.20;;;;;;5103834;28;20559;-71
2021/05/25 03:15:34;;;;;;;40.00;22.40;;;13.90;95.20;;;;;;5106790;28;20546;-71
2021/05/25 03:18:02;;;;;;;63.10;23.33;;;13.90;95.20;;;;;;5084133;28;20217;-71
2021/05/25 03:20:31;;;;;;;168.33;26.07;;;13.90;95.30;;;;;;5086850;28;20232;-71
2021/05/25 03:22:58;;;;;;;205.57;19.00;;;13.90;95.20;;;;;;5104460;28;20209;-71
2021/05/25 03:25:26;;;;;;;319.53;23.77;;;13.80;95.00;;;;;;5103855;28;20610;-72
2021/05/25 03:27:53;;;;;;;207.23;21.63;;;13.70;94.70;;;;;;5087017;28;20209;-71
2021/05/25 03:30:25;;;;;;;36.37;17.43;;;13.60;94.70;;;;;;5085726;28;20295;-71
2021/05/25 03:32:53;;;;;;;36.73;16.90;;;13.60;94.90;;;;;;5105538;28;20266;-72
2021/05/25 03:35:23;;;;;;;68.90;23.73;;;13.60;95.00;;;;;;5084735;28;20664;-72
2021/05/25 03:37:50;;;;;;;168.07;21.40;;;13.60;95.00;;;;;;5106221;28;20310;-71
2021/05/25 03:40:19;;;;;;;51.73;16.33;;;13.70;95.00;;;;;;5098554;28;20244;-72
2021/05/25 03:42:47;;;;;;;48.40;18.30;;;13.70;95.00;;;;;;5102804;28;20212;-71
2021/05/25 03:45:16;;;;;;;34.03;17.90;;;13.70;94.90;;;;;;5063904;28;20209;-71
2021/05/25 03:47:43;;;;;;;43.57;21.57;;;13.70;94.90;;;;;;5104373;28;20628;-71
2021/05/25 03:50:11;;;;;;;33.50;20.13;;;13.70;94.90;;;;;;5085104;28;20221;-71
2021/05/25 03:52:41;;;;;;;39.20;20.83;;;13.80;95.00;;;;;;5087142;28;20274;-72
2021/05/25 03:55:23;;;;;;;31.63;18.27;;;13.80;95.00;;;;;;5102830;28;20615;-71
2021/05/25 04:00:38;;;;;;;43.43;21.83;;;13.90;95.10;;;;;;5102115;28;20229;-71
2021/05/25 04:03:05;;;;;;;39.93;17.47;;;13.90;95.10;;;;;;5103387;28;20661;-71
2021/05/25 04:05:32;;;;;;;32.90;17.30;;;13.90;95.00;;;;;;5087426;28;20213;-71
2021/05/25 04:07:59;;;;;;;32.87;19.90;;;13.90;95.00;;;;;;5085141;28;20246;-71
2021/05/25 04:10:27;;;;;;;45.33;20.80;;;14.00;95.00;;;;;;5086109;28;20657;-72
2021/05/25 04:12:54;;;;;;;61.43;20.50;;;14.00;95.00;;;;;;5084940;28;20584;-71
2021/05/25 04:15:23;;;;;;;33.70;19.77;;;14.00;94.80;;;;;;5083580;28;20646;-71
2021/05/25 04:17:55;;;;;;;29.20;18.13;;;14.00;94.80;;;;;;5106408;28;20208;-71
2021/05/25 04:20:23;;;;;;;32.83;18.10;;;14.00;94.80;;;;;;5104635;28;20239;-71
2021/05/25 04:22:56;;;;;;;36.23;19.60;;;14.00;94.90;;;;;;5097508;28;20231;-71
2021/05/25 04:25:23;;;;;;;35.67;20.93;;;14.10;94.90;;;;;;5104220;28;20208;-71
2021/05/25 04:27:50;;;;;;;43.30;22.90;;;14.20;94.90;;;;;;5101331;28;20604;-72
2021/05/25 04:30:18;;;;;;;35.63;20.80;;;14.30;94.90;;;;;;5086998;28;20232;-71
2021/05/25 04:32:46;;;;;;;39.03;22.37;;;14.40;94.90;;;;;;5101476;28;20637;-72
2021/05/25 04:35:13;;;;;;;37.27;21.57;;;14.50;94.80;;;;;;5087175;28;20216;-71
2021/05/25 04:37:41;;;;;;;36.07;21.00;;;14.70;94.70;;;;;;5101556;28;20246;-71
2021/05/25 04:40:09;;;;;;;39.57;23.63;;;14.80;94.60;;;;;;5104945;28;20232;-71
2021/05/25 04:42:36;;;;;;;50.33;25.20;;;14.90;94.60;;;;;;5103494;28;20261;-71
2021/05/25 04:45:06;;;;;;;49.20;26.23;;;14.90;94.50;;;;;;5082781;28;20377;-72
2021/05/25 04:47:34;;;;;;;98.37;32.77;;;15.10;94.50;;;;;;5084216;28;20209;-72
2021/05/25 04:50:04;;;;;;;82.27;31.20;;;15.20;94.30;;;;;;5104886;28;20220;-72
2021/05/25 04:52:33;;;;;;;89.37;32.00;;;15.30;94.20;;;;;;5103044;28;20280;-72
2021/05/25 04:55:05;;;;;;;76.43;30.83;;;15.40;94.10;;;;;;5085958;28;20613;-72
2021/05/25 04:57:32;;;;;;;80.70;31.40;;;15.50;94.00;;;;;;5101146;28;20238;-72
2021/05/25 04:59:59;;;;;;;103.43;34.87;;;15.50;94.00;;;;;;5100713;28;20864;-72
2021/05/25 05:02:27;;;;;;;157.80;33.60;;;15.50;94.00;;;;;;5103954;28;20302;-72
2021/05/25 05:04:54;;;;;;;110.17;30.50;;;15.50;94.20;;;;;;5083715;28;20209;-72
2021/05/25 05:07:21;;;;;;;79.73;30.27;;;15.60;94.00;;;;;;5104130;28;20212;-72
2021/05/25 05:09:48;;;;;;;74.83;30.77;;;15.80;94.30;;;;;;5104278;28;20237;-72
2021/05/25 05:12:16;;;;;;;74.73;30.57;;;15.90;93.90;;;;;;5101501;28;20759;-72
2021/05/25 05:14:43;;;;;;;60.13;29.03;;;16.00;93.80;;;;;;5086051;28;20568;-72
2021/05/25 05:17:10;;;;;;;65.37;30.17;;;16.10;93.70;;;;;;5100477;28;20209;-72
2021/05/25 05:19:37;;;;;;;61.50;28.83;;;16.30;93.60;;;;;;5086469;28;20357;-72
2021/05/25 05:22:04;;;;;;;50.60;26.80;;;16.40;93.30;;;;;;5101847;28;20508;-72
2021/05/25 05:24:31;;;;;;;54.40;28.97;;;16.50;93.20;;;;;;5109124;28;20223;-72
2021/05/25 05:27:00;;;;;;;63.33;29.97;;;16.50;93.00;;;;;;5104740;28;20204;-72
2021/05/25 05:29:27;;;;;;;64.40;29.73;;;16.60;93.00;;;;;;5090783;28;20204;-71
2021/05/25 05:31:54;;;;;;;58.33;28.43;;;16.70;92.80;;;;;;5100482;28;20266;-71
2021/05/25 05:34:21;;;;;;;67.40;30.87;;;16.70;92.80;;;;;;5100550;28;20256;-71
2021/05/25 05:36:48;;;;;;;64.87;32.50;;;16.70;92.80;;;;;;5100214;28;20762;-72
2021/05/25 05:39:16;;;;;;;60.33;32.57;;;16.70;92.80;;;;;;5099481;28;20244;-72
2021/05/25 05:41:43;;;;;;;51.57;28.60;;;16.80;92.80;;;;;;5107408;28;20229;-72
2021/05/25 05:44:10;;;;;;;46.77;28.13;;;17.00;92.70;;;;;;5103193;28;20220;-72
2021/05/25 05:46:37;;;;;;;56.17;29.07;;;17.10;92.50;;;;;;5103958;28;20251;-72
2021/05/25 05:49:05;;;;;;;52.40;30.67;;;17.10;92.40;;;;;;5086534;28;20277;-72
2021/05/25 05:51:32;;;;;;;52.33;31.47;;;17.30;92.40;;;;;;5107577;28;20220;-72
2021/05/25 05:54:00;;;;;;;49.47;30.97;;;17.50;92.40;;;;;;5086359;28;20601;-72
2021/05/25 05:56:27;;;;;;;46.83;29.33;;;17.60;92.10;;;;;;5107129;28;20243;-72
2021/05/25 05:58:54;;;;;;;46.23;28.10;;;17.70;92.00;;;;;;5103901;28;20336;-72
2021/05/25 06:01:21;;;;;;;53.00;31.73;;;17.80;91.80;;;;;;5088560;28;20713;-72
2021/05/25 06:03:48;;;;;;;42.80;28.90;;;17.90;91.90;;;;;;5104131;28;20546;-72
2021/05/25 06:06:15;;;;;;;46.27;29.33;;;18.10;91.70;;;;;;5106545;28;20224;-72
2021/05/25 06:08:45;;;;;;;48.80;30.00;;;18.30;91.40;;;;;;5104145;28;20278;-72
2021/05/25 06:11:12;;;;;;;40.83;27.50;;;18.40;91.20;;;;;;5105972;28;20224;-72
2021/05/25 06:13:39;;;;;;;39.57;26.50;;;18.60;90.90;;;;;;5104287;28;20304;-72
2021/05/25 06:16:07;;;;;;;38.80;25.83;;;18.80;90.90;;;;;;5085579;28;20299;-72
2021/05/25 06:18:35;;;;;;;42.33;28.53;;;18.80;90.30;;;;;;5086894;28;20296;-72
2021/05/25 06:21:04;;;;;;;40.87;27.83;;;18.80;90.10;;;;;;5105174;28;20228;-72
2021/05/25 06:23:33;;;;;;;36.27;25.77;;;18.90;90.20;;;;;;5087331;28;20235;-72
2021/05/25 06:26:01;;;;;;;37.83;26.77;;;19.00;90.20;;;;;;5104946;28;20210;-72
2021/05/25 06:28:30;;;;;;;35.73;27.40;;;19.10;90.10;;;;;;5105834;28;20213;-72
2021/05/25 06:30:58;;;;;;;34.90;25.87;;;19.30;90.10;;;;;;5104258;28;20303;-72
2021/05/25 06:33:25;;;;;;;36.60;27.10;;;19.50;90.00;;;;;;5102850;28;20223;-72
2021/05/25 06:35:53;;;;;;;33.43;24.23;;;19.70;89.80;;;;;;5106097;28;20216;-72
2021/05/25 06:38:20;;;;;;;33.00;22.50;;;19.80;89.10;;;;;;5104216;28;20257;-72
2021/05/25 06:40:47;;;;;;;28.47;22.70;;;19.90;88.80;;;;;;5088064;28;20335;-72
2021/05/25 06:43:14;;;;;;;24.20;19.80;;;20.10;88.70;;;;;;5086214;28;20213;-72
2021/05/25 06:45:41;;;;;;;27.50;20.60;;;20.20;88.00;;;;;;5105441;28;20262;-72
2021/05/25 06:48:09;;;;;;;22.27;18.47;;;20.40;87.50;;;;;;5105938;28;20212;-72
2021/05/25 06:50:37;;;;;;;24.10;19.67;;;20.50;86.80;;;;;;5102871;28;20303;-72
2021/05/25 06:53:04;;;;;;;25.53;18.77;;;20.70;87.20;;;;;;5088030;28;20208;-72
2021/05/25 06:55:31;;;;;;;22.10;18.77;;;20.80;85.50;;;;;;5084845;28;20645;-72
2021/05/25 06:57:59;;;;;;;21.50;17.87;;;21.00;85.20;;;;;;5106175;28;20216;-72
2021/05/25 07:00:26;;;;;;;21.43;16.10;;;21.10;84.70;;;;;;5102705;28;20233;-72
2021/05/25 07:02:57;;;;;;;19.00;15.93;;;21.20;83.10;;;;;;5098478;28;20217;-72
2021/05/25 07:05:25;;;;;;;19.10;15.80;;;21.20;83.20;;;;;;5098377;28;20204;-72
2021/05/25 07:07:52;;;;;;;19.70;16.63;;;21.30;82.90;;;;;;5102673;28;20641;-72
2021/05/25 07:10:19;;;;;;;19.10;15.57;;;21.40;82.90;;;;;;5087988;28;20563;-72
2021/05/25 07:12:47;;;;;;;16.17;13.90;;;21.60;82.10;;;;;;5102505;28;20217;-72
2021/05/25 07:15:14;;;;;;;19.80;12.63;;;21.70;81.00;;;;;;5102105;28;20227;-73
2021/05/25 07:17:58;;;;;;;17.13;13.37;;;21.80;80.50;;;;;;5087456;28;20295;-73
2021/05/25 07:20:27;;;;;;;14.03;12.53;;;21.90;80.30;;;;;;5087118;28;20273;-72
2021/05/25 07:22:54;;;;;;;13.33;11.13;;;22.10;79.90;;;;;;5102447;28;20213;-73
2021/05/25 07:25:27;;;;;;;9.80;8.77;;;22.20;79.20;;;;;;5087247;28;20220;-72
2021/05/25 07:27:57;;;;;;;10.00;9.03;;;22.30;78.60;;;;;;5098257;28;20625;-72
2021/05/25 07:30:24;;;;;;;11.53;10.33;;;22.40;77.70;;;;;;5105504;28;20666;-72
2021/05/25 07:32:52;;;;;;;12.93;11.70;;;22.60;76.90;;;;;;5101903;28;20209;-72
2021/05/25 07:35:20;;;;;;;12.80;10.80;;;22.60;77.00;;;;;;5105208;28;20216;-72
2021/05/25 07:37:47;;;;;;;12.20;10.83;;;22.70;76.40;;;;;;5101927;28;20241;-72
2021/05/25 07:40:17;;;;;;;10.17;9.17;;;22.80;75.50;;;;;;5104155;28;20855;-72
2021/05/25 07:42:46;;;;;;;9.40;8.50;;;22.90;74.50;;;;;;5102483;28;20211;-72
2021/05/25 07:45:15;;;;;;;10.60;9.43;;;22.90;73.50;;;;;;5100390;28;20521;-72
2021/05/25 07:47:43;;;;;;;11.23;9.93;;;22.90;73.80;;;;;;5105679;28;20273;-72
2021/05/25 07:50:13;;;;;;;11.90;10.43;;;23.00;73.60;;;;;;5103592;28;20202;-72
2021/05/25 07:52:49;;;;;;;13.00;11.47;;;23.10;71.90;;;;;;5102439;28;20216;-72
2021/05/25 07:55:21;;;;;;;14.83;12.47;;;23.10;70.60;;;;;;5087018;28;20321;-72
2021/05/25 07:57:49;;;;;;;15.80;12.57;;;23.00;71.00;;;;;;5097789;28;20551;-72
2021/05/25 08:00:17;;;;;;;11.77;10.50;;;23.10;71.30;;;;;;5104306;28;20247;-72
2021/05/25 08:02:44;;;;;;;10.83;9.73;;;23.30;70.90;;;;;;5084220;28;20216;-72
2021/05/25 08:05:14;;;;;;;13.97;11.27;;;23.40;70.00;;;;;;5086433;28;20247;-72
2021/05/25 08:07:42;;;;;;;12.03;10.77;;;23.40;70.60;;;;;;5102205;28;20473;-72
2021/05/25 08:10:11;;;;;;;11.03;10.03;;;23.60;70.50;;;;;;5103565;28;20243;-72
2021/05/25 08:12:39;;;;;;;13.67;10.70;;;23.70;68.40;;;;;;5102663;28;20208;-72
2021/05/25 08:15:08;;;;;;;12.50;10.27;;;23.70;68.30;;;;;;5101306;28;20205;-72
2021/05/25 08:20:16;;;;;;;13.07;11.50;;;23.70;68.00;;;;;;5103137;28;20637;-72
2021/05/25 08:23:07;;;;;;;11.43;10.17;;;23.50;68.90;;;;;;5087622;28;20315;-71
2021/05/25 08:25:34;;;;;;;12.93;11.57;;;23.60;68.00;;;;;;5101338;28;20213;-71
2021/05/25 08:28:04;;;;;;;14.83;11.83;;;23.30;67.80;;;;;;5104148;28;20223;-72
2021/05/25 08:30:35;;;;;;;12.57;11.10;;;23.20;69.50;;;;;;5100508;28;20255;-72
2021/05/25 08:33:04;;;;;;;12.83;11.53;;;23.30;69.40;;;;;;5097898;28;20213;-72
2021/05/25 08:35:38;;;;;;;14.43;11.63;;;23.50;68.30;;;;;;5102746;28;20223;-71
2021/05/25 08:38:08;;;;;;;11.63;10.53;;;23.70;67.60;;;;;;5084509;28;20546;-72
2021/05/25 08:40:36;;;;;;;12.40;11.10;;;23.70;67.20;;;;;;5102036;28;20278;-72
2021/05/25 08:43:05;;;;;;;12.37;10.83;;;23.60;66.60;;;;;;5104881;28;20208;-72
2021/05/25 08:45:32;;;;;;;15.03;13.53;;;23.70;67.80;;;;;;5102160;28;20248;-72
2021/05/25 08:48:00;;;;;;;13.67;11.87;;;23.80;66.80;;;;;;5084111;28;20241;-72
2021/05/25 08:50:48;;;;;;;13.07;10.97;;;23.80;66.50;;;;;;5101948;28;20209;-72
2021/05/25 08:53:15;;;;;;;11.83;10.40;;;23.40;66.70;;;;;;5101968;28;20235;-72
2021/05/25 08:55:47;;;;;;;13.07;11.30;;;23.20;68.60;;;;;;5102335;28;20224;-72
2021/05/25 08:58:14;;;;;;;10.87;9.77;;;23.40;69.10;;;;;;5101860;28;20274;-72
2021/05/25 09:00:41;;;;;;;10.07;8.63;;;23.50;66.90;;;;;;5098524;28;20594;-71
2021/05/25 09:03:08;;;;;;;8.80;7.97;;;23.50;66.30;;;;;;5082695;28;20238;-71
2021/05/25 09:05:37;;;;;;;9.67;8.77;;;23.40;67.30;;;;;;5102744;28;20254;-71
2021/05/25 09:08:05;;;;;;;13.10;8.87;;;23.50;68.30;;;;;;5101775;28;20212;-72
2021/05/25 09:10:38;;;;;;;9.47;7.87;;;23.80;67.20;;;;;;5085105;28;20631;-72
2021/05/25 09:13:15;;;;;;;9.63;8.73;;;24.10;67.00;;;;;;5099969;28;20651;-72
2021/05/25 09:15:48;;;;;;;9.90;7.80;;;24.40;66.00;;;;;;5097616;28;20352;-72
2021/05/25 09:18:17;;;;;;;9.50;8.60;;;24.70;63.50;;;;;;5101692;28;20324;-72
2021/05/25 09:20:46;;;;;;;10.27;7.77;;;24.90;62.30;;;;;;5101697;28;20228;-72
2021/05/25 09:23:16;;;;;;;7.23;6.50;;;25.00;62.50;;;;;;5102415;28;20201;-72
2021/05/25 09:25:53;;;;;;;7.57;6.30;;;25.10;62.50;;;;;;5100933;28;20668;-72
2021/05/25 09:28:22;;;;;;;7.87;6.37;;;25.00;63.80;;;;;;5096760;28;20739;-72
2021/05/25 09:30:50;;;;;;;8.30;6.37;;;25.00;62.80;;;;;;5101409;28;20216;-72
2021/05/25 09:33:21;;;;;;;6.57;5.87;;;25.10;62.40;;;;;;5102890;28;20224;-72
2021/05/25 09:35:50;;;;;;;10.57;7.27;;;25.20;61.80;;;;;;5101356;28;20240;-72
2021/05/25 09:38:42;;;;;;;6.83;5.70;;;25.30;61.00;;;;;;5076227;28;20245;-72
2021/05/25 09:41:10;;;;;;;7.47;5.77;;;25.30;60.70;;;;;;5062792;28;20287;-72
2021/05/25 09:43:37;;;;;;;9.47;6.63;;;25.30;61.20;;;;;;5064599;28;20210;-72
2021/05/25 09:46:13;;;;;;;7.53;6.80;;;25.40;59.70;;;;;;5062980;28;20211;-72
2021/05/25 09:48:43;;;;;;;9.83;6.83;;;25.40;60.40;;;;;;5054015;28;20263;-72
2021/05/25 09:51:26;;;;;;;5.97;5.37;;;25.40;59.80;;;;;;5060517;28;20218;-72
2021/05/25 09:53:58;;;;;;;6.20;5.30;;;25.50;60.00;;;;;;5060961;28;20222;-72
2021/05/25 09:56:27;;;;;;;6.90;4.70;;;25.60;60.00;;;;;;5061940;28;20218;-71
2021/05/25 09:58:56;;;;;;;6.50;5.37;;;25.60;59.70;;;;;;5063302;28;20241;-71
2021/05/25 10:01:34;;;;;;;6.17;5.57;;;25.70;60.20;;;;;;5052797;28;20763;-72
2021/05/25 10:04:15;;;;;;;6.90;5.93;;;25.90;59.50;;;;;;5063767;28;20237;-72
2021/05/25 10:06:44;;;;;;;10.27;6.10;;;25.90;58.30;;;;;;5061215;28;20214;-71
2021/05/25 10:09:13;;;;;;;6.67;5.20;;;25.90;59.30;;;;;;5064037;28;20248;-71
2021/05/25 10:11:45;;;;;;;7.17;5.17;;;26.10;58.80;;;;;;5056129;28;20268;-72
2021/05/25 10:14:13;;;;;;;7.13;5.60;;;26.00;58.10;;;;;;5066438;28;20212;-72
2021/05/25 10:16:44;;;;;;;6.93;5.73;;;26.00;58.40;;;;;;5062857;28;20218;-72
2021/05/25 10:21:38;;;;;;;6.07;5.47;;;25.90;59.20;;;;;;5062815;28;20336;-72
2021/05/25 10:24:06;;;;;;;8.60;4.97;;;26.10;58.60;;;;;;5054869;28;20206;-72
2021/05/25 10:26:35;;;;;;;7.43;5.20;;;26.20;58.10;;;;;;5054966;28;20221;-72
2021/05/25 10:29:05;;;;;;;10.50;6.37;;;26.30;58.40;;;;;;5054764;28;20210;-72
2021/05/25 10:31:41;;;;;;;7.33;5.33;;;26.40;57.90;;;;;;5054673;28;20218;-72
2021/05/25 10:34:20;;;;;;;5.60;5.07;;;26.40;56.80;;;;;;5047220;28;20610;-72
2021/05/25 10:36:53;;;;;;;8.80;6.17;;;26.30;58.60;;;;;;5062789;28;20618;-71
2021/05/25 10:39:30;;;;;;;7.67;6.00;;;26.40;58.00;;;;;;5077494;28;20244;-71
2021/05/25 10:42:20;;;;;;;9.13;5.07;;;26.40;55.20;;;;;;5104592;28;20255;-71
2021/05/25 10:45:11;;;;;;;6.37;5.77;;;26.20;57.30;;;;;;5096852;28;20237;-72
2021/05/25 10:47:55;;;;;;;5.77;5.10;;;26.20;58.10;;;;;;5099802;28;20278;-71
2021/05/25 10:50:31;;;;;;;6.87;5.70;;;26.10;58.40;;;;;;5104017;28;20209;-72
2021/05/25 10:52:59;;;;;;;10.40;5.77;;;26.10;57.80;;;;;;5089351;28;20244;-71
2021/05/25 10:55:33;;;;;;;6.70;5.40;;;26.10;57.90;;;;;;5098622;28;20263;-71
2021/05/25 10:58:28;;;;;;;8.93;5.30;;;26.00;57.80;;;;;;5100725;28;20289;-71
2021/05/25 11:00:56;;;;;;;7.40;4.40;;;26.10;57.80;;;;;;5091979;28;20282;-71
2021/05/25 11:03:23;;;;;;;10.07;5.60;;;26.20;58.60;;;;;;5105718;28;20281;-71
2021/05/25 11:05:51;;;;;;;7.80;4.30;;;26.50;59.20;;;;;;5103522;28;20247;-72
2021/05/25 11:08:19;;;;;;;8.53;6.10;;;26.60;58.10;;;;;;5087211;28;20216;-72
2021/05/25 11:10:54;;;;;;;8.27;5.70;;;26.70;57.50;;;;;;5102344;28;20294;-72
2021/05/25 11:13:22;;;;;;;10.37;6.03;;;26.80;58.20;;;;;;5104948;28;20219;-72
2021/05/25 11:16:12;;;;;;;9.87;6.53;;;26.60;57.50;;;;;;5101889;28;20316;-72
2021/05/25 11:24:58;;;;;;;7.60;6.07;;;26.00;59.10;;;;;;5097861;28;20213;-72
2021/05/25 11:27:47;;;;;;;8.50;5.93;;;25.70;58.70;;;;;;5031139;28;20632;-71
2021/05/25 11:30:31;;;;;;;5.83;4.93;;;25.90;57.90;;;;;;5008895;28;20223;-71
2021/05/25 11:33:02;;;;;;;4.57;3.80;;;26.00;59.10;;;;;;5031681;28;21134;-71
2021/05/25 11:35:31;;;;;;;8.37;5.90;;;26.10;58.30;;;;;;5031255;28;20225;-71
2021/05/25 11:38:03;;;;;;;5.60;3.83;;;26.40;59.20;;;;;;5031145;28;20221;-71
2021/05/25 11:40:39;;;;;;;6.70;3.47;;;26.60;57.20;;;;;;5031054;28;20266;-71
2021/05/25 11:43:07;;;;;;;7.93;3.40;;;26.80;55.70;;;;;;5031232;28;20333;-71
2021/05/25 11:45:34;;;;;;;4.53;3.00;;;26.90;54.90;;;;;;5031005;28;20218;-71
2021/05/25 11:48:05;;;;;;;5.20;2.93;;;26.90;54.90;;;;;;5030704;28;20226;-71
2021/05/25 11:50:40;;;;;;;6.63;2.70;;;27.00;55.00;;;;;;5030854;28;20648;-71
2021/05/25 11:53:11;;;;;;;8.33;2.60;;;27.10;54.00;;;;;;5014530;28;20215;-71
2021/05/25 11:55:42;;;;;;;5.17;2.97;;;27.10;53.60;;;;;;5026890;28;20222;-71
2021/05/25 11:58:09;;;;;;;7.63;3.20;;;27.10;52.80;;;;;;5027584;28;20686;-71
2021/05/25 12:00:37;;;;;;;6.03;2.77;;;27.10;53.50;;;;;;5045659;28;20270;-71
2021/05/25 12:03:10;;;;;;;3.27;1.80;;;27.20;53.20;;;;;;5081832;28;20234;-71
2021/05/25 12:05:39;;;;;;;5.03;2.23;;;27.30;53.40;;;;;;5065719;28;20649;-71
2021/05/25 12:08:10;;;;;;;3.03;2.10;;;27.30;52.60;;;;;;5082686;28;20214;-72
2021/05/25 12:10:41;;;;;;;3.30;1.50;;;27.40;53.00;;;;;;5082361;28;20209;-72
2021/05/25 12:13:11;;;;;;;5.07;1.57;;;27.50;51.60;;;;;;5083177;28;20251;-72
2021/05/25 12:15:49;;;;;;;5.17;1.00;;;27.50;49.60;;;;;;5063184;28;20256;-71
2021/05/25 12:18:24;;;;;;;2.80;1.70;;;27.50;48.00;;;;;;5079436;28;20217;-72
2021/05/25 12:20:55;;;;;;;2.50;1.50;;;27.50;47.20;;;;;;5082350;28;20310;-72
2021/05/25 12:23:25;;;;;;;4.60;1.17;;;27.40;47.40;;;;;;5083669;28;20426;-72
2021/05/25 12:25:54;;;;;;;5.13;1.60;;;27.40;48.60;;;;;;5063848;28;20220;-72
2021/05/25 12:28:31;;;;;;;2.47;1.07;;;27.40;49.60;;;;;;5066712;28;20530;-72
2021/05/25 12:31:00;;;;;;;3.53;1.20;;;27.40;48.60;;;;;;5078121;28;20229;-71
2021/05/25 12:33:34;;;;;;;4.97;1.43;;;27.20;47.60;;;;;;5065604;28;20543;-71
2021/05/25 12:36:24;;;;;;;2.07;1.50;;;27.10;48.10;;;;;;5065015;28;20217;-71
2021/05/25 12:39:04;;;;;;;2.53;1.00;;;27.20;47.50;;;;;;5081521;28;20283;-71
2021/05/25 12:41:43;;;;;;;6.60;1.70;;;27.30;49.90;;;;;;5101379;28;20824;-71
2021/05/25 12:44:12;;;;;;;6.17;1.80;;;27.30;48.70;;;;;;5097359;28;20212;-71
2021/05/25 12:46:55;;;;;;;9.97;2.10;;;27.00;48.90;;;;;;5102020;28;20205;-71
2021/05/25 12:49:34;;;;;;;3.17;1.60;;;26.60;50.50;;;;;;5100505;28;20212;-71
2021/05/25 12:52:27;;;;;;;6.57;1.33;;;26.30;51.30;;;;;;5093964;28;20640;-71
2021/05/25 12:55:08;;;;;;;3.57;1.57;;;25.70;50.90;;;;;;5097160;28;20217;-72
2021/05/25 12:57:54;;;;;;;5.00;1.70;;;25.20;52.10;;;;;;5102454;28;20519;-71
2021/05/25 13:00:31;;;;;;;3.90;1.60;;;24.70;52.10;;;;;;5093392;28;20215;-72
2021/05/25 13:02:59;;;;;;;3.10;1.50;;;24.30;52.50;;;;;;5102776;28;20636;-71